sensor_id;sensor_type;location;lat;lon;timestamp;pressure;altitude;pressure_sealevel;temperature;humidity
14067;BME280;7108;42.684;23.350;2023-05-08T00:00:23;95483.13;;;15.75;100.00
14067;BME280;7108;42.684;23.350;2023-05-08T00:02:49;95477.31;;;15.67;100.00
14067;BME280;7108;42.684;23.350;2023-05-08T00:05:14;95478.50;;;15.76;100.00
14067;BME280;7108;42.684;23.350;2023-05-08T00:07:40;95479.66;;;15.75;100.00
14067;BME280;7108;42.684;23.350;2023-05-08T00:10:09;95482.38;;;15.78;100.00
14067;BME280;7108;42.684;23.350;2023-05-08T00:12:35;95483.16;;;15.79;100.00
14067;BME280;7108;42.684;23.350;2023-05-08T00:15:01;95482.75;;;15.77;100.00
14067;BME280;7108;42.684;23.350;2023-05-08T00:17:29;95490.94;;;15.84;100.00
14067;BME280;7108;42.684;23.350;2023-05-08T00:19:54;95477.34;;;15.84;100.00
14067;BME280;7108;42.684;23.350;2023-05-08T00:22:21;95481.22;;;15.86;100.00
14067;BME280;7108;42.684;23.350;2023-05-08T00:24:46;95477.75;;;15.82;100.00
14067;BME280;7108;42.684;23.350;2023-05-08T00:27:12;95496.75;;;15.89;100.00
14067;BME280;7108;42.684;23.350;2023-05-08T00:29:39;95476.56;;;15.80;100.00
14067;BME280;7108;42.684;23.350;2023-05-08T00:32:06;95502.97;;;15.86;100.00
14067;BME280;7108;42.684;23.350;2023-05-08T00:34:31;95499.06;;;15.77;100.00
14067;BME280;7108;42.684;23.350;2023-05-08T00:36:57;95502.94;;;15.79;100.00
14067;BME280;7108;42.684;23.350;2023-05-08T00:39:22;95502.16;;;15.75;100.00
14067;BME280;7108;42.684;23.350;2023-05-08T00:41:48;95500.25;;;15.76;100.00
14067;BME280;7108;42.684;23.350;2023-05-08T00:44:13;95498.69;;;15.78;100.00
14067;BME280;7108;42.684;23.350;2023-05-08T00:46:41;95495.97;;;15.75;100.00
14067;BME280;7108;42.684;23.350;2023-05-08T00:49:07;95487.38;;;15.63;100.00
14067;BME280;7108;42.684;23.350;2023-05-08T00:51:37;95498.63;;;15.65;100.00
14067;BME280;7108;42.684;23.350;2023-05-08T00:54:03;95495.50;;;15.59;100.00
14067;BME280;7108;42.684;23.350;2023-05-08T00:56:29;95510.66;;;15.60;100.00
14067;BME280;7108;42.684;23.350;2023-05-08T00:58:56;95491.94;;;15.45;100.00
14067;BME280;7108;42.684;23.350;2023-05-08T01:01:23;95505.97;;;15.50;100.00
14067;BME280;7108;42.684;23.350;2023-05-08T01:03:49;95509.81;;;15.46;100.00
14067;BME280;7108;42.684;23.350;2023-05-08T01:06:14;95505.50;;;15.41;100.00
14067;BME280;7108;42.684;23.350;2023-05-08T01:08:43;95519.09;;;15.45;100.00
14067;BME280;7108;42.684;23.350;2023-05-08T01:13:49;95512.81;;;15.27;100.00
14067;BME280;7108;42.684;23.350;2023-05-08T01:16:22;95506.16;;;15.21;100.00
14067;BME280;7108;42.684;23.350;2023-05-08T01:21:45;95509.31;;;15.26;100.00
14067;BME280;7108;42.684;23.350;2023-05-08T01:24:37;95510.78;;;15.20;100.00
14067;BME280;7108;42.684;23.350;2023-05-08T01:32:37;95520.09;;;15.16;100.00
14067;BME280;7108;42.684;23.350;2023-05-08T01:37:43;95506.88;;;15.14;100.00
14067;BME280;7108;42.684;23.350;2023-05-08T01:40:18;95506.06;;;15.07;100.00
14067;BME280;7108;42.684;23.350;2023-05-08T01:45:50;95505.59;;;14.95;100.00
14067;BME280;7108;42.684;23.350;2023-05-08T01:48:38;95496.63;;;14.87;100.00
14067;BME280;7108;42.684;23.350;2023-05-08T01:51:16;95491.53;;;14.79;100.00
14067;BME280;7108;42.684;23.350;2023-05-08T01:53:56;95486.47;;;14.74;100.00
14067;BME280;7108;42.684;23.350;2023-05-08T01:56:27;95488.41;;;14.73;100.00
14067;BME280;7108;42.684;23.350;2023-05-08T01:58:53;95493.44;;;14.75;100.00
14067;BME280;7108;42.684;23.350;2023-05-08T02:01:22;95498.03;;;14.67;100.00
14067;BME280;7108;42.684;23.350;2023-05-08T02:03:49;95490.50;;;14.47;100.00
14067;BME280;7108;42.684;23.350;2023-05-08T02:06:17;95506.84;;;14.54;100.00
14067;BME280;7108;42.684;23.350;2023-05-08T02:08:44;95492.31;;;14.29;100.00
14067;BME280;7108;42.684;23.350;2023-05-08T02:11:11;95491.16;;;14.30;100.00
14067;BME280;7108;42.684;23.350;2023-05-08T02:13:38;95503.94;;;14.33;100.00
14067;BME280;7108;42.684;23.350;2023-05-08T02:16:06;95497.72;;;14.29;100.00
14067;BME280;7108;42.684;23.350;2023-05-08T02:18:32;95501.16;;;14.26;100.00
14067;BME280;7108;42.684;23.350;2023-05-08T02:20:59;95508.50;;;14.22;100.00
14067;BME280;7108;42.684;23.350;2023-05-08T02:23:27;95504.56;;;14.16;100.00
14067;BME280;7108;42.684;23.350;2023-05-08T02:25:53;95524.03;;;14.25;100.00
14067;BME280;7108;42.684;23.350;2023-05-08T02:28:20;95512.34;;;14.21;100.00
14067;BME280;7108;42.684;23.350;2023-05-08T02:30:48;95503.88;;;14.23;100.00
14067;BME280;7108;42.684;23.350;2023-05-08T02:33:15;95521.63;;;14.17;100.00
14067;BME280;7108;42.684;23.350;2023-05-08T02:35:43;95507.22;;;14.09;100.00
14067;BME280;7108;42.684;23.350;2023-05-08T02:38:10;95499.47;;;14.11;100.00
14067;BME280;7108;42.684;23.350;2023-05-08T02:40:43;95504.19;;;14.14;100.00
14067;BME280;7108;42.684;23.350;2023-05-08T02:43:10;95511.44;;;14.07;100.00
14067;BME280;7108;42.684;23.350;2023-05-08T02:45:42;95520.00;;;14.12;100.00
14067;BME280;7108;42.684;23.350;2023-05-08T02:48:23;95512.91;;;14.01;100.00
14067;BME280;7108;42.684;23.350;2023-05-08T02:51:08;95521.97;;;14.12;100.00
14067;BME280;7108;42.684;23.350;2023-05-08T02:53:39;95515.28;;;14.06;100.00
14067;BME280;7108;42.684;23.350;2023-05-08T02:56:12;95530.47;;;14.10;100.00
14067;BME280;7108;42.684;23.350;2023-05-08T02:58:51;95523.47;;;14.09;100.00
14067;BME280;7108;42.684;23.350;2023-05-08T03:01:33;95525.38;;;14.09;100.00
14067;BME280;7108;42.684;23.350;2023-05-08T03:04:11;95525.75;;;14.07;100.00
14067;BME280;7108;42.684;23.350;2023-05-08T03:06:42;95523.03;;;14.07;100.00
14067;BME280;7108;42.684;23.350;2023-05-08T03:09:20;95520.25;;;14.00;100.00
14067;BME280;7108;42.684;23.350;2023-05-08T03:11:49;95523.00;;;14.04;100.00
14067;BME280;7108;42.684;23.350;2023-05-08T03:14:21;95529.22;;;14.08;100.00
14067;BME280;7108;42.684;23.350;2023-05-08T03:16:51;95524.50;;;14.01;100.00
14067;BME280;7108;42.684;23.350;2023-05-08T03:19:23;95534.16;;;13.99;100.00
14067;BME280;7108;42.684;23.350;2023-05-08T03:21:50;95536.09;;;13.98;100.00
14067;BME280;7108;42.684;23.350;2023-05-08T03:24:18;95533.41;;;13.98;100.00
14067;BME280;7108;42.684;23.350;2023-05-08T03:26:46;95538.84;;;14.02;100.00
14067;BME280;7108;42.684;23.350;2023-05-08T03:29:12;95534.97;;;14.03;100.00
14067;BME280;7108;42.684;23.350;2023-05-08T03:31:40;95540.38;;;14.03;100.00
14067;BME280;7108;42.684;23.350;2023-05-08T03:34:07;95544.28;;;14.05;100.00
14067;BME280;7108;42.684;23.350;2023-05-08T03:36:34;95546.59;;;14.03;100.00
14067;BME280;7108;42.684;23.350;2023-05-08T03:38:59;95536.81;;;13.95;100.00
14067;BME280;7108;42.684;23.350;2023-05-08T03:41:25;95539.19;;;14.00;100.00
14067;BME280;7108;42.684;23.350;2023-05-08T03:43:52;95528.34;;;13.97;100.00
14067;BME280;7108;42.684;23.350;2023-05-08T03:46:19;95530.34;;;14.03;100.00
14067;BME280;7108;42.684;23.350;2023-05-08T03:48:46;95528.09;;;14.09;100.00
14067;BME280;7108;42.684;23.350;2023-05-08T03:51:14;95539.03;;;14.16;100.00
14067;BME280;7108;42.684;23.350;2023-05-08T03:53:40;95537.91;;;14.20;100.00
14067;BME280;7108;42.684;23.350;2023-05-08T03:56:05;95532.88;;;14.22;100.00
14067;BME280;7108;42.684;23.350;2023-05-08T03:58:43;95541.06;;;14.26;100.00
14067;BME280;7108;42.684;23.350;2023-05-08T04:01:21;95548.84;;;14.31;100.00
14067;BME280;7108;42.684;23.350;2023-05-08T04:04:06;95547.31;;;14.33;100.00
14067;BME280;7108;42.684;23.350;2023-05-08T04:06:58;95553.16;;;14.35;100.00
14067;BME280;7108;42.684;23.350;2023-05-08T04:12:37;95550.38;;;14.28;100.00
14067;BME280;7108;42.684;23.350;2023-05-08T04:15:08;95545.34;;;14.27;100.00
14067;BME280;7108;42.684;23.350;2023-05-08T04:17:48;95559.69;;;14.31;100.00
14067;BME280;7108;42.684;23.350;2023-05-08T04:20:23;95560.09;;;14.33;100.00
14067;BME280;7108;42.684;23.350;2023-05-08T04:22:52;95560.09;;;14.33;100.00
14067;BME280;7108;42.684;23.350;2023-05-08T04:25:19;95558.97;;;14.37;100.00
14067;BME280;7108;42.684;23.350;2023-05-08T04:27:45;95572.25;;;14.49;100.00
14067;BME280;7108;42.684;23.350;2023-05-08T04:30:12;95549.72;;;14.42;100.00
14067;BME280;7108;42.684;23.350;2023-05-08T04:32:38;95564.50;;;14.47;100.00
14067;BME280;7108;42.684;23.350;2023-05-08T04:35:04;95551.34;;;14.49;100.00
14067;BME280;7108;42.684;23.350;2023-05-08T04:37:30;95556.47;;;14.58;100.00
14067;BME280;7108;42.684;23.350;2023-05-08T04:39:56;95562.38;;;14.67;100.00
14067;BME280;7108;42.684;23.350;2023-05-08T04:42:22;95563.13;;;14.67;100.00
14067;BME280;7108;42.684;23.350;2023-05-08T04:44:49;95534.75;;;14.58;100.00
14067;BME280;7108;42.684;23.350;2023-05-08T04:47:14;95535.56;;;14.58;100.00
14067;BME280;7108;42.684;23.350;2023-05-08T04:49:40;95553.88;;;14.72;100.00
14067;BME280;7108;42.684;23.350;2023-05-08T04:52:05;95544.59;;;14.76;100.00
14067;BME280;7108;42.684;23.350;2023-05-08T04:54:32;95526.75;;;14.72;100.00
14067;BME280;7108;42.684;23.350;2023-05-08T04:56:57;95533.72;;;14.73;100.00
14067;BME280;7108;42.684;23.350;2023-05-08T04:59:26;95548.94;;;14.84;100.00
14067;BME280;7108;42.684;23.350;2023-05-08T05:01:52;95538.84;;;14.85;100.00
14067;BME280;7108;42.684;23.350;2023-05-08T05:04:17;95545.91;;;14.93;100.00
14067;BME280;7108;42.684;23.350;2023-05-08T05:06:43;95527.69;;;14.93;100.00
14067;BME280;7108;42.684;23.350;2023-05-08T05:09:08;95521.84;;;14.91;100.00
14067;BME280;7108;42.684;23.350;2023-05-08T05:11:34;95526.50;;;14.91;100.00
14067;BME280;7108;42.684;23.350;2023-05-08T05:14:00;95537.44;;;15.05;100.00
14067;BME280;7108;42.684;23.350;2023-05-08T05:16:25;95520.38;;;15.01;100.00
14067;BME280;7108;42.684;23.350;2023-05-08T05:18:51;95537.50;;;15.11;100.00
14067;BME280;7108;42.684;23.350;2023-05-08T05:21:18;95527.84;;;15.17;100.00
14067;BME280;7108;42.684;23.350;2023-05-08T05:23:43;95525.88;;;15.14;100.00
14067;BME280;7108;42.684;23.350;2023-05-08T05:26:08;95527.78;;;15.04;100.00
14067;BME280;7108;42.684;23.350;2023-05-08T05:28:34;95530.06;;;15.02;100.00
14067;BME280;7108;42.684;23.350;2023-05-08T05:31:00;95539.44;;;15.14;100.00
14067;BME280;7108;42.684;23.350;2023-05-08T05:33:25;95518.16;;;15.16;100.00
14067;BME280;7108;42.684;23.350;2023-05-08T05:35:51;95528.34;;;15.30;100.00
14067;BME280;7108;42.684;23.350;2023-05-08T05:38:16;95517.84;;;15.25;100.00
14067;BME280;7108;42.684;23.350;2023-05-08T05:40:42;95526.47;;;15.41;100.00
14067;BME280;7108;42.684;23.350;2023-05-08T05:43:07;95529.59;;;15.50;100.00
14067;BME280;7108;42.684;23.350;2023-05-08T05:45:33;95519.03;;;15.31;100.00
14067;BME280;7108;42.684;23.350;2023-05-08T05:47:58;95528.00;;;15.45;100.00
14067;BME280;7108;42.684;23.350;2023-05-08T05:50:24;95517.13;;;15.38;100.00
14067;BME280;7108;42.684;23.350;2023-05-08T05:52:51;95524.50;;;15.38;100.00
14067;BME280;7108;42.684;23.350;2023-05-08T05:55:16;95519.50;;;15.47;100.00
14067;BME280;7108;42.684;23.350;2023-05-08T05:57:42;95530.75;;;15.49;100.00
14067;BME280;7108;42.684;23.350;2023-05-08T06:00:07;95526.94;;;15.64;100.00
14067;BME280;7108;42.684;23.350;2023-05-08T06:02:35;95521.19;;;15.75;100.00
14067;BME280;7108;42.684;23.350;2023-05-08T06:05:00;95508.00;;;15.81;100.00
14067;BME280;7108;42.684;23.350;2023-05-08T06:07:26;95506.84;;;15.82;100.00
14067;BME280;7108;42.684;23.350;2023-05-08T06:09:51;95513.88;;;15.97;100.00
14067;BME280;7108;42.684;23.350;2023-05-08T06:12:18;95508.81;;;15.95;100.00
14067;BME280;7108;42.684;23.350;2023-05-08T06:14:43;95509.22;;;15.94;100.00
14067;BME280;7108;42.684;23.350;2023-05-08T06:17:09;95492.88;;;15.90;100.00
14067;BME280;7108;42.684;23.350;2023-05-08T06:19:34;95503.81;;;16.11;100.00
14067;BME280;7108;42.684;23.350;2023-05-08T06:22:00;95496.84;;;16.17;100.00
14067;BME280;7108;42.684;23.350;2023-05-08T06:24:28;95512.38;;;16.24;100.00
14067;BME280;7108;42.684;23.350;2023-05-08T06:26:54;95489.09;;;16.19;100.00
14067;BME280;7108;42.684;23.350;2023-05-08T06:29:19;95496.06;;;16.24;100.00
14067;BME280;7108;42.684;23.350;2023-05-08T06:31:45;95495.69;;;16.25;100.00
14067;BME280;7108;42.684;23.350;2023-05-08T06:34:10;95513.97;;;16.39;100.00
14067;BME280;7108;42.684;23.350;2023-05-08T06:36:36;95498.81;;;16.27;100.00
14067;BME280;7108;42.684;23.350;2023-05-08T06:39:05;95499.16;;;16.12;100.00
14067;BME280;7108;42.684;23.350;2023-05-08T06:41:30;95503.84;;;16.22;100.00
14067;BME280;7108;42.684;23.350;2023-05-08T06:43:56;95505.00;;;16.21;100.00
14067;BME280;7108;42.684;23.350;2023-05-08T06:46:21;95500.78;;;16.30;100.00
14067;BME280;7108;42.684;23.350;2023-05-08T06:48:47;95517.50;;;16.46;100.00
14067;BME280;7108;42.684;23.350;2023-05-08T06:51:12;95514.03;;;16.56;100.00
14067;BME280;7108;42.684;23.350;2023-05-08T06:53:38;95495.34;;;16.44;100.00
14067;BME280;7108;42.684;23.350;2023-05-08T06:56:03;95491.47;;;16.55;100.00
14067;BME280;7108;42.684;23.350;2023-05-08T06:58:30;95501.19;;;16.63;100.00
14067;BME280;7108;42.684;23.350;2023-05-08T07:00:59;95505.47;;;16.64;100.00
14067;BME280;7108;42.684;23.350;2023-05-08T07:03:25;95505.84;;;16.70;100.00
14067;BME280;7108;42.684;23.350;2023-05-08T07:05:52;95492.25;;;16.63;100.00
14067;BME280;7108;42.684;23.350;2023-05-08T07:08:17;95512.44;;;16.83;100.00
14067;BME280;7108;42.684;23.350;2023-05-08T07:10:43;95505.44;;;16.85;100.00
14067;BME280;7108;42.684;23.350;2023-05-08T07:13:08;95518.28;;;16.92;100.00
14067;BME280;7108;42.684;23.350;2023-05-08T07:15:33;95509.34;;;16.98;100.00
14067;BME280;7108;42.684;23.350;2023-05-08T07:17:59;95512.47;;;16.76;100.00
14067;BME280;7108;42.684;23.350;2023-05-08T07:20:25;95513.25;;;16.90;100.00
14067;BME280;7108;42.684;23.350;2023-05-08T07:22:51;95511.69;;;16.82;100.00
14067;BME280;7108;42.684;23.350;2023-05-08T07:25:16;95513.63;;;16.82;100.00
14067;BME280;7108;42.684;23.350;2023-05-08T07:27:42;95498.06;;;16.82;100.00
14067;BME280;7108;42.684;23.350;2023-05-08T07:30:08;95506.59;;;16.95;100.00
14067;BME280;7108;42.684;23.350;2023-05-08T07:32:33;95519.44;;;17.05;100.00
14067;BME280;7108;42.684;23.350;2023-05-08T07:34:59;95512.81;;;17.06;100.00
14067;BME280;7108;42.684;23.350;2023-05-08T07:37:29;95512.06;;;17.02;100.00
14067;BME280;7108;42.684;23.350;2023-05-08T07:39:55;95506.22;;;17.07;100.00
14067;BME280;7108;42.684;23.350;2023-05-08T07:42:20;95510.47;;;17.18;100.00
14067;BME280;7108;42.684;23.350;2023-05-08T07:44:46;95496.09;;;17.14;100.00
14067;BME280;7108;42.684;23.350;2023-05-08T07:47:12;95514.38;;;17.34;100.00
14067;BME280;7108;42.684;23.350;2023-05-08T07:49:37;95521.75;;;17.34;100.00
14067;BME280;7108;42.684;23.350;2023-05-08T07:52:06;95519.03;;;17.30;100.00
14067;BME280;7108;42.684;23.350;2023-05-08T07:54:31;95503.47;;;17.31;100.00
14067;BME280;7108;42.684;23.350;2023-05-08T07:56:56;95516.28;;;17.37;100.00
14067;BME280;7108;42.684;23.350;2023-05-08T07:59:22;95518.19;;;17.51;100.00
14067;BME280;7108;42.684;23.350;2023-05-08T08:01:47;95512.75;;;17.54;100.00
14067;BME280;7108;42.684;23.350;2023-05-08T08:04:13;95521.25;;;17.70;100.00
14067;BME280;7108;42.684;23.350;2023-05-08T08:06:39;95513.03;;;17.80;100.00
14067;BME280;7108;42.684;23.350;2023-05-08T08:09:05;95516.91;;;17.83;100.00
14067;BME280;7108;42.684;23.350;2023-05-08T08:11:31;95520.06;;;17.74;100.00
14067;BME280;7108;42.684;23.350;2023-05-08T08:13:56;95523.13;;;17.87;100.00
14067;BME280;7108;42.684;23.350;2023-05-08T08:16:22;95521.13;;;17.94;100.00
14067;BME280;7108;42.684;23.350;2023-05-08T08:18:47;95519.28;;;17.77;100.00
14067;BME280;7108;42.684;23.350;2023-05-08T08:21:13;95518.88;;;17.82;100.00
14067;BME280;7108;42.684;23.350;2023-05-08T08:23:38;95506.03;;;17.76;100.00
14067;BME280;7108;42.684;23.350;2023-05-08T08:26:03;95511.44;;;17.86;100.00
14067;BME280;7108;42.684;23.350;2023-05-08T08:28:29;95517.28;;;17.88;100.00
14067;BME280;7108;42.684;23.350;2023-05-08T08:30:54;95510.28;;;17.91;100.00
14067;BME280;7108;42.684;23.350;2023-05-08T08:33:20;95505.56;;;17.95;100.00
14067;BME280;7108;42.684;23.350;2023-05-08T08:35:45;95509.88;;;17.92;100.00
14067;BME280;7108;42.684;23.350;2023-05-08T08:38:11;95498.16;;;17.92;100.00
14067;BME280;7108;42.684;23.350;2023-05-08T08:40:40;95488.78;;;18.00;100.00
14067;BME280;7108;42.684;23.350;2023-05-08T08:43:06;95487.59;;;18.04;100.00
14067;BME280;7108;42.684;23.350;2023-05-08T08:45:32;95496.16;;;18.03;100.00
14067;BME280;7108;42.684;23.350;2023-05-08T08:48:00;95480.59;;;18.00;100.00
14067;BME280;7108;42.684;23.350;2023-05-08T08:50:29;95490.28;;;18.11;100.00
14067;BME280;7108;42.684;23.350;2023-05-08T08:52:59;95488.34;;;18.12;100.00
14067;BME280;7108;42.684;23.350;2023-05-08T08:55:29;95481.66;;;18.16;100.00
14067;BME280;7108;42.684;23.350;2023-05-08T08:58:32;95479.69;;;18.27;100.00
14067;BME280;7108;42.684;23.350;2023-05-08T09:01:01;95473.81;;;18.29;100.00
14067;BME280;7108;42.684;23.350;2023-05-08T09:03:30;95464.78;;;18.39;100.00
14067;BME280;7108;42.684;23.350;2023-05-08T09:05:58;95464.31;;;18.50;100.00
14067;BME280;7108;42.684;23.350;2023-05-08T09:08:25;95449.94;;;18.46;100.00
14067;BME280;7108;42.684;23.350;2023-05-08T09:10:54;95449.50;;;18.51;100.00
14067;BME280;7108;42.684;23.350;2023-05-08T09:13:20;95443.22;;;18.54;100.00
14067;BME280;7108;42.684;23.350;2023-05-08T09:15:46;95455.66;;;18.62;100.00
14067;BME280;7108;42.684;23.350;2023-05-08T09:18:13;95443.59;;;18.60;100.00
14067;BME280;7108;42.684;23.350;2023-05-08T09:20:39;95438.47;;;18.65;100.00
14067;BME280;7108;42.684;23.350;2023-05-08T09:23:05;95435.00;;;18.61;100.00
14067;BME280;7108;42.684;23.350;2023-05-08T09:25:44;95419.03;;;18.56;100.00
14067;BME280;7108;42.684;23.350;2023-05-08T09:28:21;95425.59;;;18.66;100.00
14067;BME280;7108;42.684;23.350;2023-05-08T09:30:57;95420.91;;;18.66;100.00
14067;BME280;7108;42.684;23.350;2023-05-08T09:33:24;95408.47;;;18.62;100.00
14067;BME280;7108;42.684;23.350;2023-05-08T09:35:51;95426.22;;;18.80;100.00
14067;BME280;7108;42.684;23.350;2023-05-08T09:43:32;95441.81;;;18.83;100.00
14067;BME280;7108;42.684;23.350;2023-05-08T09:48:43;95448.41;;;18.89;100.00
14067;BME280;7108;42.684;23.350;2023-05-08T09:51:10;95441.38;;;18.88;100.00
14067;BME280;7108;42.684;23.350;2023-05-08T09:53:35;95436.38;;;18.80;100.00
14067;BME280;7108;42.684;23.350;2023-05-08T09:56:01;95449.94;;;18.90;100.00
14067;BME280;7108;42.684;23.350;2023-05-08T09:58:45;95443.59;;;19.00;100.00
14067;BME280;7108;42.684;23.350;2023-05-08T10:01:34;95442.16;;;18.89;100.00
14067;BME280;7108;42.684;23.350;2023-05-08T10:04:00;95436.31;;;18.87;100.00
14067;BME280;7108;42.684;23.350;2023-05-08T10:06:26;95428.81;;;18.98;100.00
14067;BME280;7108;42.684;23.350;2023-05-08T10:09:12;95443.09;;;19.12;100.00
14067;BME280;7108;42.684;23.350;2023-05-08T10:11:48;95438.81;;;19.11;100.00
14067;BME280;7108;42.684;23.350;2023-05-08T10:14:17;95437.28;;;19.07;100.00
14067;BME280;7108;42.684;23.350;2023-05-08T10:16:45;95429.03;;;19.13;100.00
14067;BME280;7108;42.684;23.350;2023-05-08T10:19:13;95421.50;;;19.24;100.00
14067;BME280;7108;42.684;23.350;2023-05-08T10:21:40;95424.47;;;19.37;100.00
14067;BME280;7108;42.684;23.350;2023-05-08T10:24:13;95418.66;;;19.35;100.00
14067;BME280;7108;42.684;23.350;2023-05-08T10:26:44;95417.72;;;19.48;100.00
14067;BME280;7108;42.684;23.350;2023-05-08T10:29:17;95403.22;;;19.51;100.00
14067;BME280;7108;42.684;23.350;2023-05-08T10:31:45;95403.19;;;19.55;100.00
14067;BME280;7108;42.684;23.350;2023-05-08T10:34:17;95409.59;;;19.71;100.00
14067;BME280;7108;42.684;23.350;2023-05-08T10:36:43;95400.19;;;19.75;100.00
14067;BME280;7108;42.684;23.350;2023-05-08T10:39:10;95396.38;;;19.66;100.00
14067;BME280;7108;42.684;23.350;2023-05-08T10:41:36;95406.78;;;19.78;100.00
14067;BME280;7108;42.684;23.350;2023-05-08T10:44:02;95399.41;;;19.75;100.00
14067;BME280;7108;42.684;23.350;2023-05-08T10:52:37;95401.22;;;19.85;100.00
14067;BME280;7108;42.684;23.350;2023-05-08T10:55:14;95389.34;;;19.98;100.00
14067;BME280;7108;42.684;23.350;2023-05-08T10:58:04;95383.97;;;19.88;100.00
14067;BME280;7108;42.684;23.350;2023-05-08T11:03:18;95390.25;;;19.88;100.00
14067;BME280;7108;42.684;23.350;2023-05-08T11:05:47;95382.19;;;20.04;100.00
14067;BME280;7108;42.684;23.350;2023-05-08T11:08:14;95372.72;;;20.12;100.00
14067;BME280;7108;42.684;23.350;2023-05-08T11:10:43;95368.31;;;20.18;100.00
14067;BME280;7108;42.684;23.350;2023-05-08T11:13:10;95366.13;;;20.33;100.00
14067;BME280;7108;42.684;23.350;2023-05-08T11:15:37;95375.25;;;20.49;100.00
14067;BME280;7108;42.684;23.350;2023-05-08T11:18:05;95371.44;;;20.66;100.00
14067;BME280;7108;42.684;23.350;2023-05-08T11:20:55;95355.78;;;20.89;100.00
14067;BME280;7108;42.684;23.350;2023-05-08T11:23:35;95347.22;;;21.07;100.00
14067;BME280;7108;42.684;23.350;2023-05-08T11:26:06;95342.00;;;21.12;100.00
14067;BME280;7108;42.684;23.350;2023-05-08T11:31:04;95333.84;;;21.08;100.00
14067;BME280;7108;42.684;23.350;2023-05-08T11:33:36;95318.13;;;21.12;100.00
14067;BME280;7108;42.684;23.350;2023-05-08T11:36:13;95329.63;;;21.43;100.00
14067;BME280;7108;42.684;23.350;2023-05-08T11:38:40;95335.13;;;21.62;100.00
14067;BME280;7108;42.684;23.350;2023-05-08T11:41:09;95326.31;;;21.71;93.54
14067;BME280;7108;42.684;23.350;2023-05-08T11:46:20;95307.31;;;22.11;97.54
14067;BME280;7108;42.684;23.350;2023-05-08T11:48:46;95301.41;;;22.29;93.01
14067;BME280;7108;42.684;23.350;2023-05-08T11:51:12;95290.59;;;22.06;81.64
14067;BME280;7108;42.684;23.350;2023-05-08T11:53:38;95296.75;;;21.94;82.59
14067;BME280;7108;42.684;23.350;2023-05-08T11:56:04;95279.34;;;22.00;84.17
14067;BME280;7108;42.684;23.350;2023-05-08T11:58:30;95285.59;;;22.17;85.21
14067;BME280;7108;42.684;23.350;2023-05-08T12:00:56;95280.25;;;22.29;83.24
14067;BME280;7108;42.684;23.350;2023-05-08T12:03:23;95279.13;;;22.43;85.07
14067;BME280;7108;42.684;23.350;2023-05-08T12:05:55;95280.03;;;22.52;86.05
14067;BME280;7108;42.684;23.350;2023-05-08T12:08:21;95280.09;;;22.48;83.75
14067;BME280;7108;42.684;23.350;2023-05-08T12:10:56;95285.88;;;22.38;79.93
14067;BME280;7108;42.684;23.350;2023-05-08T12:13:24;95271.72;;;22.08;81.75
14067;BME280;7108;42.684;23.350;2023-05-08T12:15:52;95281.66;;;22.02;86.55
14067;BME280;7108;42.684;23.350;2023-05-08T12:18:18;95279.88;;;22.11;92.88
14067;BME280;7108;42.684;23.350;2023-05-08T12:20:44;95277.03;;;22.15;82.32
14067;BME280;7108;42.684;23.350;2023-05-08T12:23:10;95275.94;;;22.28;89.91
14067;BME280;7108;42.684;23.350;2023-05-08T12:25:37;95275.44;;;22.33;78.60
14067;BME280;7108;42.684;23.350;2023-05-08T12:28:05;95264.97;;;22.28;76.90
14067;BME280;7108;42.684;23.350;2023-05-08T12:30:31;95261.69;;;22.33;81.47
14067;BME280;7108;42.684;23.350;2023-05-08T12:32:57;95253.91;;;22.32;82.58
14067;BME280;7108;42.684;23.350;2023-05-08T12:35:23;95257.91;;;22.43;82.39
14067;BME280;7108;42.684;23.350;2023-05-08T12:37:49;95246.34;;;22.36;79.71
14067;BME280;7108;42.684;23.350;2023-05-08T12:40:33;95248.50;;;22.28;77.00
14067;BME280;7108;42.684;23.350;2023-05-08T12:43:00;95255.09;;;22.31;78.54
14067;BME280;7108;42.684;23.350;2023-05-08T12:45:35;95258.06;;;22.36;80.97
14067;BME280;7108;42.684;23.350;2023-05-08T12:48:04;95254.81;;;22.09;77.07
14067;BME280;7108;42.684;23.350;2023-05-08T12:50:35;95257.91;;;21.95;79.62
14067;BME280;7108;42.684;23.350;2023-05-08T12:53:08;95260.22;;;21.81;84.94
14067;BME280;7108;42.684;23.350;2023-05-08T12:55:36;95251.72;;;21.60;87.52
14067;BME280;7108;42.684;23.350;2023-05-08T12:58:02;95249.94;;;21.69;89.73
14067;BME280;7108;42.684;23.350;2023-05-08T13:00:38;95251.34;;;21.58;88.72
14067;BME280;7108;42.684;23.350;2023-05-08T13:03:05;95255.88;;;21.48;84.13
14067;BME280;7108;42.684;23.350;2023-05-08T13:05:33;95267.06;;;21.38;98.76
14067;BME280;7108;42.684;23.350;2023-05-08T13:08:01;95267.59;;;21.13;100.00
14067;BME280;7108;42.684;23.350;2023-05-08T13:13:16;95272.66;;;20.53;100.00
14067;BME280;7108;42.684;23.350;2023-05-08T13:15:43;95283.88;;;20.40;100.00
14067;BME280;7108;42.684;23.350;2023-05-08T13:18:08;95293.16;;;20.23;100.00
14067;BME280;7108;42.684;23.350;2023-05-08T13:20:34;95287.78;;;20.19;100.00
14067;BME280;7108;42.684;23.350;2023-05-08T13:23:01;95287.88;;;20.12;100.00
14067;BME280;7108;42.684;23.350;2023-05-08T13:25:26;95285.75;;;20.00;100.00
14067;BME280;7108;42.684;23.350;2023-05-08T13:27:52;95293.94;;;20.00;100.00
14067;BME280;7108;42.684;23.350;2023-05-08T13:30:17;95301.56;;;19.86;100.00
14067;BME280;7108;42.684;23.350;2023-05-08T13:32:43;95304.47;;;19.75;100.00
14067;BME280;7108;42.684;23.350;2023-05-08T13:35:08;95302.75;;;19.59;100.00
14067;BME280;7108;42.684;23.350;2023-05-08T13:37:34;95312.34;;;19.44;100.00
14067;BME280;7108;42.684;23.350;2023-05-08T13:39:59;95312.22;;;19.24;100.00